createdAt,value
2022-11-01T00:00:14.403Z,18.40
2022-11-01T00:03:04.792Z,18.00
2022-11-01T00:05:35.120Z,18.80
2022-11-01T00:08:05.638Z,17.40
2022-11-01T00:10:34.478Z,18.70
2022-11-01T00:13:03.602Z,22.50
2022-11-01T00:15:34.081Z,18.70
2022-11-01T00:18:04.258Z,18.30
2022-11-01T00:20:36.892Z,17.90
2022-11-01T00:23:07.161Z,19.80
2022-11-01T00:25:37.580Z,17.60
2022-11-01T00:28:07.608Z,17.40
2022-11-01T00:30:39.076Z,18.40
2022-11-01T00:33:09.546Z,21.80
2022-11-01T00:35:40.074Z,16.40
2022-11-01T00:38:09.981Z,16.80
2022-11-01T00:40:40.450Z,16.50
2022-11-01T00:43:11.228Z,15.50
2022-11-01T00:45:50.906Z,15.60
2022-11-01T00:48:20.878Z,18.20
2022-11-01T00:50:51.179Z,15.10
2022-11-01T00:53:21.161Z,15.70
2022-11-01T00:55:51.497Z,14.20
2022-11-01T00:58:21.138Z,17.70
2022-11-01T01:00:51.734Z,16.50
2022-11-01T01:03:21.963Z,18.10
2022-11-01T01:05:54.186Z,54.20
2022-11-01T01:08:25.033Z,20.70
2022-11-01T01:10:55.691Z,22.60
2022-11-01T01:13:27.244Z,32.40
2022-11-01T01:15:58.023Z,16.50
2022-11-01T01:18:28.184Z,18.90
2022-11-01T01:21:05.786Z,16.50
2022-11-01T01:23:36.828Z,13.20
2022-11-01T01:26:11.936Z,17.40
2022-11-01T01:28:44.695Z,17.00
2022-11-01T01:31:16.260Z,15.50
2022-11-01T01:33:46.468Z,13.80
2022-11-01T01:36:16.473Z,14.50
2022-11-01T01:38:46.791Z,15.10
2022-11-01T01:41:36.882Z,16.10
2022-11-01T01:44:44.734Z,18.20
2022-11-01T01:47:29.861Z,18.50
2022-11-01T01:50:35.033Z,18.70
2022-11-01T01:53:15.120Z,17.40
2022-11-01T01:56:12.275Z,18.50
2022-11-01T01:58:52.253Z,19.60
2022-11-01T02:01:23.276Z,15.80
2022-11-01T02:03:54.875Z,17.00
2022-11-01T02:06:26.471Z,28.10
2022-11-01T02:09:03.052Z,25.90
2022-11-01T02:11:33.139Z,16.20
2022-11-01T02:14:03.962Z,22.40
2022-11-01T02:16:55.964Z,15.00
2022-11-01T02:19:50.853Z,20.80
2022-11-01T02:22:26.126Z,14.70
2022-11-01T02:25:28.463Z,16.00
2022-11-01T02:28:22.729Z,22.40
2022-11-01T02:31:31.378Z,17.60
2022-11-01T02:34:16.149Z,19.70
2022-11-01T02:36:58.270Z,13.90
2022-11-01T02:39:35.159Z,15.80
2022-11-01T02:42:29.281Z,16.20
2022-11-01T02:45:28.448Z,14.60
2022-11-01T02:48:00.444Z,14.00
2022-11-01T02:50:37.966Z,15.80
2022-11-01T02:53:08.952Z,13.20
2022-11-01T02:55:39.458Z,15.90
2022-11-01T02:58:32.627Z,21.20
2022-11-01T03:01:02.685Z,13.70
2022-11-01T03:03:36.721Z,14.70
2022-11-01T03:06:15.133Z,15.50
2022-11-01T03:08:52.885Z,16.10
2022-11-01T03:11:36.911Z,15.70
2022-11-01T03:14:23.102Z,12.80
2022-11-01T03:17:03.309Z,13.30
2022-11-01T03:19:39.541Z,14.40
2022-11-01T03:22:22.466Z,13.30
2022-11-01T03:24:53.473Z,13.00
2022-11-01T03:27:42.726Z,14.00
2022-11-01T03:30:15.571Z,16.50
2022-11-01T03:32:54.136Z,13.30
2022-11-01T03:35:36.742Z,12.80
2022-11-01T03:38:14.503Z,13.90
2022-11-01T03:40:51.133Z,13.60
2022-11-01T03:43:28.296Z,12.70
2022-11-01T03:46:00.120Z,13.50
2022-11-01T03:48:32.410Z,12.60
2022-11-01T03:51:02.467Z,13.60
2022-11-01T03:53:31.302Z,14.40
2022-11-01T03:56:01.912Z,12.90
2022-11-01T03:58:46.409Z,12.50
2022-11-01T04:01:18.262Z,14.40
2022-11-01T04:03:48.378Z,13.20
2022-11-01T04:06:19.060Z,14.10
2022-11-01T04:08:49.093Z,15.10
2022-11-01T04:11:18.236Z,14.20
2022-11-01T04:13:48.716Z,12.20
2022-11-01T04:16:38.115Z,13.00
2022-11-01T04:19:28.373Z,13.20
2022-11-01T04:21:57.623Z,11.80
2022-11-01T04:24:27.154Z,13.40
2022-11-01T04:26:57.425Z,12.50
2022-11-01T04:29:26.567Z,13.00
2022-11-01T04:31:58.002Z,12.50
2022-11-01T04:34:43.732Z,12.70
2022-11-01T04:37:14.611Z,12.00
2022-11-01T04:39:44.609Z,11.50
2022-11-01T04:42:14.720Z,12.00
2022-11-01T04:44:47.357Z,10.60
2022-11-01T04:47:17.607Z,11.00
2022-11-01T04:49:47.736Z,11.10
2022-11-01T04:52:18.200Z,11.90
2022-11-01T04:54:48.623Z,9.60
2022-11-01T05:00:12.942Z,9.90
2022-11-01T05:02:43.352Z,10.50
2022-11-01T05:05:15.640Z,10.20
2022-11-01T05:07:44.799Z,11.20
2022-11-01T05:10:14.185Z,11.90
2022-11-01T05:12:43.087Z,11.70
2022-11-01T05:15:13.436Z,11.90
2022-11-01T05:17:43.825Z,10.40
2022-11-01T05:20:16.538Z,18.20
2022-11-01T05:22:47.015Z,11.50
2022-11-01T05:25:18.456Z,11.40
2022-11-01T05:27:48.987Z,10.60
2022-11-01T05:30:19.158Z,12.50
2022-11-01T05:32:49.488Z,11.80
2022-11-01T05:35:19.768Z,11.20
2022-11-01T05:37:50.563Z,9.60
2022-11-01T05:40:20.840Z,9.20
2022-11-01T05:42:51.292Z,12.20
2022-11-01T05:45:21.429Z,11.20
2022-11-01T05:47:52.202Z,10.60
2022-11-01T05:50:22.358Z,11.50
2022-11-01T05:52:52.740Z,10.90
2022-11-01T05:55:23.340Z,9.70
2022-11-01T05:57:59.554Z,10.80
2022-11-01T06:00:30.243Z,12.00
2022-11-01T06:03:01.328Z,10.60
2022-11-01T06:05:32.011Z,11.00
2022-11-01T06:08:03.260Z,10.50
2022-11-01T06:10:34.231Z,10.20
2022-11-01T06:13:04.400Z,13.10
2022-11-01T06:15:37.254Z,11.00
2022-11-01T06:18:10.808Z,11.10
2022-11-01T06:20:43.380Z,14.30
2022-11-01T06:23:13.541Z,12.40
2022-11-01T06:25:43.742Z,11.80
2022-11-01T06:28:14.084Z,12.10
2022-11-01T06:30:44.742Z,10.80
2022-11-01T06:33:14.765Z,9.20
2022-11-01T06:35:45.274Z,11.10
2022-11-01T06:38:16.040Z,12.10
2022-11-01T06:40:47.543Z,10.00
2022-11-01T06:43:20.005Z,11.20
2022-11-01T06:45:50.481Z,10.70
2022-11-01T06:48:20.504Z,10.10
2022-11-01T06:50:54.435Z,10.90
2022-11-01T06:53:25.531Z,13.40
2022-11-01T06:55:59.058Z,13.10
2022-11-01T06:58:29.178Z,12.50
2022-11-01T07:01:03.383Z,12.80
2022-11-01T07:03:33.983Z,12.10
2022-11-01T07:06:04.568Z,15.20
2022-11-01T07:08:34.565Z,18.60
2022-11-01T07:11:05.152Z,13.70
2022-11-01T07:13:38.205Z,11.90
2022-11-01T07:16:08.445Z,13.30
2022-11-01T07:18:37.962Z,12.00
2022-11-01T07:21:08.343Z,10.80
2022-11-01T07:23:39.445Z,12.00
2022-11-01T07:26:09.763Z,11.40
2022-11-01T07:28:42.082Z,11.60
2022-11-01T07:31:12.287Z,12.60
2022-11-01T07:33:42.541Z,11.40
2022-11-01T07:36:12.870Z,10.60
2022-11-01T07:38:42.862Z,11.90
2022-11-01T07:41:13.270Z,13.10
2022-11-01T07:43:43.662Z,12.10
2022-11-01T07:46:13.982Z,11.40
2022-11-01T07:48:44.589Z,13.30
2022-11-01T07:51:16.188Z,13.60
2022-11-01T07:53:46.411Z,14.60
2022-11-01T07:56:17.003Z,12.90
2022-11-01T07:58:47.691Z,11.80
2022-11-01T08:01:18.152Z,11.00
2022-11-01T08:03:49.888Z,10.90
2022-11-01T08:08:50.794Z,10.60
2022-11-01T08:11:21.572Z,11.50
2022-11-01T08:13:52.341Z,11.20
2022-11-01T08:16:22.948Z,12.30
2022-11-01T08:18:53.273Z,13.10
2022-11-01T08:21:22.263Z,11.70
2022-11-01T08:23:55.959Z,12.00
2022-11-01T08:26:27.379Z,13.80
2022-11-01T08:28:57.650Z,13.20
2022-11-01T08:31:26.419Z,18.30
2022-11-01T08:33:57.370Z,11.70
2022-11-01T08:36:27.993Z,12.10
2022-11-01T08:38:58.622Z,14.00
2022-11-01T08:41:34.310Z,17.00
2022-11-01T08:44:07.223Z,16.00
2022-11-01T08:46:37.289Z,13.60
2022-11-01T08:49:07.502Z,20.30
2022-11-01T08:51:37.567Z,21.20
2022-11-01T08:54:08.591Z,17.20
2022-11-01T08:56:39.799Z,16.20
2022-11-01T08:59:11.812Z,21.20
2022-11-01T09:01:40.881Z,18.30
2022-11-01T09:04:11.345Z,18.10
2022-11-01T09:06:41.877Z,16.20
2022-11-01T09:09:11.949Z,14.50
2022-11-01T09:11:41.948Z,13.50
2022-11-01T09:14:12.105Z,17.20
2022-11-01T09:16:42.097Z,14.70
2022-11-01T09:19:12.749Z,16.90
2022-11-01T09:21:46.434Z,12.00
2022-11-01T09:24:18.307Z,14.30
2022-11-01T09:26:48.795Z,14.50
2022-11-01T09:29:21.574Z,11.00
2022-11-01T09:31:54.567Z,11.50
2022-11-01T09:34:25.068Z,12.60
2022-11-01T09:36:55.127Z,10.30
2022-11-01T09:39:25.064Z,11.20
2022-11-01T09:42:05.380Z,12.10
2022-11-01T09:44:43.239Z,10.90
2022-11-01T09:49:58.383Z,17.30
2022-11-01T09:52:28.710Z,10.80
2022-11-01T09:54:59.901Z,9.80
2022-11-01T09:57:54.730Z,9.20
2022-11-01T10:00:25.896Z,10.70
2022-11-01T10:03:16.375Z,13.10
2022-11-01T10:06:01.981Z,12.10
2022-11-01T10:09:29.832Z,11.80
2022-11-01T10:12:14.130Z,11.20
2022-11-01T10:15:26.080Z,11.00
2022-11-01T10:18:04.378Z,12.00
2022-11-01T10:20:39.585Z,9.60
2022-11-01T10:23:17.289Z,11.70
2022-11-01T10:25:55.341Z,13.30
2022-11-01T10:28:47.005Z,10.10
2022-11-01T10:31:25.489Z,10.10
2022-11-01T10:34:05.228Z,11.70
2022-11-01T10:36:40.572Z,12.20
2022-11-01T10:42:24.237Z,11.50
2022-11-01T10:45:00.486Z,11.10
2022-11-01T10:47:33.333Z,13.30
2022-11-01T10:50:22.748Z,10.60
2022-11-01T10:53:09.355Z,11.50
2022-11-01T10:55:53.173Z,11.10
2022-11-01T10:58:29.943Z,14.60
2022-11-01T11:01:04.455Z,9.80
2022-11-01T11:03:35.314Z,12.20
2022-11-01T11:06:10.280Z,12.00
2022-11-01T11:08:42.475Z,10.80
2022-11-01T11:11:21.406Z,11.30
2022-11-01T11:13:55.904Z,16.10
2022-11-01T11:16:45.450Z,13.60
2022-11-01T11:19:31.031Z,16.50
2022-11-01T11:22:05.852Z,13.20
2022-11-01T11:24:40.209Z,13.80
2022-11-01T11:27:20.187Z,18.60
2022-11-01T11:29:55.860Z,22.20
2022-11-01T11:32:34.717Z,17.70
2022-11-01T11:38:02.495Z,15.00
2022-11-01T11:40:41.776Z,19.80
2022-11-01T11:43:32.092Z,20.60
2022-11-01T11:46:06.005Z,21.40
2022-11-01T11:48:56.150Z,16.40
2022-11-01T11:51:31.040Z,18.00
2022-11-01T11:54:29.612Z,22.70
2022-11-01T11:57:18.617Z,20.40
2022-11-01T11:59:56.155Z,18.90
2022-11-01T12:05:16.823Z,23.10
2022-11-01T12:07:54.367Z,20.30
2022-11-01T12:10:40.205Z,18.30
2022-11-01T12:13:50.918Z,19.70
2022-11-01T12:16:26.249Z,19.70
2022-11-01T12:19:00.702Z,16.40
2022-11-01T12:21:40.658Z,20.60
2022-11-01T12:24:22.694Z,20.70
2022-11-01T12:26:57.891Z,20.00
2022-11-01T12:29:55.814Z,20.40
2022-11-01T12:32:38.750Z,19.60
2022-11-01T12:35:36.927Z,18.50
2022-11-01T12:38:13.943Z,20.80
2022-11-01T12:40:49.074Z,20.50
2022-11-01T12:43:28.944Z,22.10
2022-11-01T12:46:11.316Z,19.70
2022-11-01T12:49:26.414Z,20.80
2022-11-01T12:54:47.783Z,21.50
2022-11-01T12:57:19.642Z,20.30
2022-11-01T12:59:49.940Z,23.80
2022-11-01T13:02:40.670Z,20.50
2022-11-01T13:05:22.209Z,20.30
2022-11-01T13:08:24.689Z,21.80
2022-11-01T13:11:03.708Z,23.60
2022-11-01T13:13:44.440Z,24.00
2022-11-01T13:16:37.888Z,23.50
2022-11-01T13:19:48.695Z,22.10
2022-11-01T13:22:28.618Z,21.80
2022-11-01T13:25:07.469Z,20.30
2022-11-01T13:28:06.931Z,21.70
2022-11-01T13:30:43.117Z,23.20
2022-11-01T13:33:29.022Z,26.50
2022-11-01T13:36:06.798Z,21.50
2022-11-01T13:39:00.134Z,24.00
2022-11-01T13:41:57.626Z,23.30
2022-11-01T13:44:35.863Z,26.30
2022-11-01T13:47:24.022Z,29.10
2022-11-01T13:50:17.750Z,24.10
2022-11-01T13:53:07.536Z,27.50
2022-11-01T13:55:56.483Z,27.60
2022-11-01T13:58:27.860Z,24.80
2022-11-01T14:00:58.272Z,27.30
2022-11-01T14:03:37.268Z,24.30
2022-11-01T14:06:12.892Z,28.50
2022-11-01T14:08:44.988Z,27.30
2022-11-01T14:11:46.089Z,26.10
2022-11-01T14:14:36.093Z,29.00
2022-11-01T14:17:20.929Z,29.90
2022-11-01T14:20:12.334Z,31.30
2022-11-01T14:22:45.380Z,29.90
2022-11-01T14:25:15.268Z,27.90
2022-11-01T14:27:51.487Z,28.20
2022-11-01T14:30:30.103Z,30.20
2022-11-01T14:33:04.606Z,31.70
2022-11-01T14:35:38.195Z,33.10
2022-11-01T14:38:19.272Z,34.80
2022-11-01T14:40:58.230Z,33.40
2022-11-01T14:43:49.757Z,33.00
2022-11-01T14:46:24.808Z,37.40
2022-11-01T14:49:06.891Z,34.50
2022-11-01T14:52:07.498Z,36.20
2022-11-01T14:54:52.703Z,40.70
2022-11-01T14:57:31.035Z,37.90
2022-11-01T15:00:20.387Z,35.20
2022-11-01T15:02:53.343Z,36.00
2022-11-01T15:05:23.842Z,32.80
2022-11-01T15:07:56.377Z,36.00
2022-11-01T15:10:28.078Z,34.90
2022-11-01T15:13:02.624Z,36.40
2022-11-01T15:15:39.394Z,35.50
2022-11-01T15:18:20.567Z,36.00
2022-11-01T15:20:55.450Z,38.20
2022-11-01T15:23:37.167Z,39.60
2022-11-01T15:26:15.234Z,36.80
2022-11-01T15:28:47.790Z,40.10
2022-11-01T15:31:19.626Z,39.30
2022-11-01T15:34:01.894Z,40.30
2022-11-01T15:36:38.972Z,34.40
2022-11-01T15:39:23.990Z,39.80
2022-11-01T15:41:58.666Z,36.80
2022-11-01T15:44:32.905Z,35.40
2022-11-01T15:47:07.087Z,38.50
2022-11-01T15:49:50.822Z,40.90
2022-11-01T15:52:40.906Z,39.60
2022-11-01T15:55:30.715Z,36.70
2022-11-01T15:58:14.759Z,36.60
2022-11-01T16:00:53.418Z,41.20
2022-11-01T16:03:38.920Z,35.60
2022-11-01T16:06:22.862Z,44.20
2022-11-01T16:09:01.935Z,37.80
2022-11-01T16:11:34.370Z,40.40
2022-11-01T16:14:08.678Z,40.70
2022-11-01T16:17:03.040Z,34.00
2022-11-01T16:19:59.791Z,36.90
2022-11-01T16:22:42.512Z,36.10
2022-11-01T16:25:25.738Z,44.40
2022-11-01T16:28:07.885Z,45.90
2022-11-01T16:30:43.899Z,43.70
2022-11-01T16:33:20.697Z,53.80
2022-11-01T16:35:57.700Z,50.40
2022-11-01T16:41:37.835Z,48.70
2022-11-01T16:44:18.822Z,53.30
2022-11-01T16:46:49.729Z,49.30
2022-11-01T16:49:24.689Z,55.80
2022-11-01T16:51:56.950Z,98.60
2022-11-01T16:54:26.804Z,109.20
2022-11-01T16:57:01.474Z,52.90
2022-11-01T16:59:42.445Z,49.00
2022-11-01T17:02:32.758Z,84.20
2022-11-01T17:05:19.150Z,47.50
2022-11-01T17:07:51.817Z,68.00
2022-11-01T17:10:26.087Z,64.50
2022-11-01T17:12:58.882Z,61.40
2022-11-01T17:15:31.987Z,72.40
2022-11-01T17:18:07.230Z,78.70
2022-11-01T17:20:39.060Z,82.20
2022-11-01T17:23:19.139Z,70.30
2022-11-01T17:25:53.250Z,65.10
2022-11-01T17:28:27.258Z,85.10
2022-11-01T17:31:01.924Z,102.30
2022-11-01T17:33:35.987Z,82.50
2022-11-01T17:36:06.698Z,93.90
2022-11-01T17:38:36.782Z,103.40
2022-11-01T17:41:09.792Z,84.30
2022-11-01T17:43:40.362Z,79.40
2022-11-01T17:46:17.014Z,70.80
2022-11-01T17:48:47.527Z,56.40
2022-11-01T17:51:21.017Z,54.10
2022-11-01T17:53:58.695Z,57.60
2022-11-01T17:56:29.406Z,86.20
2022-11-01T17:58:58.812Z,63.20
2022-11-01T18:01:30.908Z,69.30
2022-11-01T18:04:04.541Z,77.10
2022-11-01T18:06:51.782Z,74.80
2022-11-01T18:09:34.070Z,64.60
2022-11-01T18:12:19.203Z,53.50
2022-11-01T18:15:24.174Z,53.00
2022-11-01T18:18:09.193Z,75.40
2022-11-01T18:21:15.506Z,91.40
2022-11-01T18:23:51.178Z,65.30
2022-11-01T18:26:24.517Z,58.90
2022-11-01T18:29:10.256Z,76.90
2022-11-01T18:31:44.865Z,78.50
2022-11-01T18:34:39.079Z,86.00
2022-11-01T18:37:51.625Z,51.70
2022-11-01T18:40:28.132Z,72.90
2022-11-01T18:42:58.214Z,47.40
2022-11-01T18:45:33.203Z,54.50
2022-11-01T18:48:23.927Z,66.90
2022-11-01T18:51:08.763Z,51.70
2022-11-01T18:53:38.858Z,88.60
2022-11-01T18:56:23.421Z,70.20
2022-11-01T18:58:54.904Z,49.20
2022-11-01T19:01:33.889Z,97.20
2022-11-01T19:04:22.782Z,54.90
2022-11-01T19:07:16.990Z,61.70
2022-11-01T19:10:00.777Z,67.10
2022-11-01T19:12:41.177Z,44.00
2022-11-01T19:15:17.649Z,50.20
2022-11-01T19:17:53.365Z,57.90
2022-11-01T19:20:32.200Z,47.40
2022-11-01T19:23:04.436Z,53.80
2022-11-01T19:25:36.951Z,54.50
2022-11-01T19:28:20.673Z,47.60
2022-11-01T19:30:52.081Z,36.70
2022-11-01T19:33:32.659Z,48.70
2022-11-01T19:36:12.385Z,38.80
2022-11-01T19:38:45.525Z,55.00
2022-11-01T19:41:31.185Z,60.60
2022-11-01T19:44:14.339Z,46.20
2022-11-01T19:46:43.432Z,68.30
2022-11-01T19:49:31.291Z,41.00
2022-11-01T19:52:30.918Z,53.70
2022-11-01T19:54:59.839Z,43.40
2022-11-01T19:57:37.576Z,38.80
2022-11-01T20:00:19.642Z,41.90
2022-11-01T20:02:55.326Z,57.60
2022-11-01T20:05:35.015Z,73.70
2022-11-01T20:08:30.148Z,53.10
2022-11-01T20:10:58.987Z,40.70
2022-11-01T20:13:29.803Z,39.40
2022-11-01T20:16:00.188Z,31.40
2022-11-01T20:18:30.585Z,37.10
2022-11-01T20:21:12.647Z,49.10
2022-11-01T20:23:47.670Z,43.60
2022-11-01T20:26:17.887Z,41.50
2022-11-01T20:28:49.534Z,42.30
2022-11-01T20:31:20.313Z,42.00
2022-11-01T20:33:51.307Z,32.60
2022-11-01T20:36:22.867Z,29.80
2022-11-01T20:38:52.915Z,35.90
2022-11-01T20:41:25.095Z,52.00
2022-11-01T20:43:54.713Z,45.40
2022-11-01T20:46:24.714Z,36.50
2022-11-01T20:48:55.053Z,34.60
2022-11-01T20:51:28.054Z,33.70
2022-11-01T20:53:58.631Z,57.40
2022-11-01T20:56:29.213Z,36.20
2022-11-01T20:58:59.656Z,52.70
2022-11-01T21:01:30.329Z,31.50
2022-11-01T21:04:00.023Z,53.30
2022-11-01T21:06:32.096Z,52.70
2022-11-01T21:09:10.073Z,62.50
2022-11-01T21:11:46.749Z,54.60
2022-11-01T21:14:24.235Z,40.70
2022-11-01T21:16:57.616Z,48.60
2022-11-01T21:19:28.320Z,61.10
2022-11-01T21:21:59.861Z,37.60
2022-11-01T21:24:37.248Z,43.70
2022-11-01T21:27:13.780Z,61.20
2022-11-01T21:29:49.518Z,55.70
2022-11-01T21:32:35.843Z,89.80
2022-11-01T21:35:22.315Z,91.00
2022-11-01T21:37:55.293Z,110.10
2022-11-01T21:40:30.216Z,107.80
2022-11-01T21:43:21.022Z,103.40
2022-11-01T21:45:53.280Z,113.60
2022-11-01T21:48:30.211Z,66.00
2022-11-01T21:51:00.294Z,51.70
2022-11-01T21:53:30.672Z,76.70
2022-11-01T21:56:00.521Z,73.10
2022-11-01T21:58:30.941Z,61.60
2022-11-01T22:01:01.201Z,52.90
2022-11-01T22:03:31.611Z,51.30
2022-11-01T22:06:01.657Z,70.20
2022-11-01T22:08:31.957Z,53.30
2022-11-01T22:11:00.939Z,55.50
2022-11-01T22:13:31.287Z,52.70
2022-11-01T22:16:01.535Z,43.30
2022-11-01T22:18:31.789Z,50.60
2022-11-01T22:21:01.852Z,49.70
2022-11-01T22:23:32.181Z,76.30
2022-11-01T22:26:02.436Z,60.10
2022-11-01T22:28:32.709Z,65.60
2022-11-01T22:31:03.143Z,63.70
2022-11-01T22:33:37.349Z,73.10
2022-11-01T22:36:12.309Z,58.00
2022-11-01T22:38:47.321Z,51.10
2022-11-01T22:41:25.900Z,55.00
2022-11-01T22:44:11.872Z,30.60
2022-11-01T22:47:03.338Z,50.50
2022-11-01T22:49:35.402Z,29.80
2022-11-01T22:52:30.240Z,38.20
2022-11-01T22:55:09.376Z,46.10
2022-11-01T22:57:55.341Z,40.40
2022-11-01T23:00:40.337Z,43.20
2022-11-01T23:03:27.995Z,51.30
2022-11-01T23:06:02.572Z,45.50
2022-11-01T23:08:37.720Z,31.20
2022-11-01T23:11:34.729Z,38.80
2022-11-01T23:14:37.652Z,52.50
2022-11-01T23:17:22.258Z,37.60
2022-11-01T23:20:01.260Z,47.30
2022-11-01T23:22:36.893Z,23.00
2022-11-01T23:25:10.098Z,17.60
2022-11-01T23:27:39.521Z,18.10
2022-11-01T23:30:09.926Z,22.50
2022-11-01T23:32:40.185Z,27.60
2022-11-01T23:35:22.078Z,27.30
2022-11-01T23:37:54.123Z,27.20
2022-11-01T23:40:32.027Z,23.10
2022-11-01T23:43:02.600Z,21.00
2022-11-01T23:45:34.982Z,36.50
2022-11-01T23:48:05.926Z,31.80
2022-11-01T23:50:38.223Z,45.50
2022-11-01T23:53:14.305Z,31.10
2022-11-01T23:55:53.972Z,31.20
2022-11-01T23:58:31.328Z,30.00
